Eglin Air Force Base
KVPS : now visible

Airfield :











YOU CAN JOIN US ON...

 
LOGIN :

Register | Disclaimer

   EN    FR    IT 

 









Legend :    VFR   Marginal VFR   IFR   Intensive IFR   Very Intensive IFR
Visi :
Ceiling :
>= 8 km
>= 3000ft
5 to 8 km
1000 to 3000 ft
1500m to 5 km
500 to 1000 ft
800 to 1500m
200 to 500 ft
< 800m
< 200 ft
Symbols :   Thunderstorms  Fog  Heavy snow  Heavy precipitations  Wind > 20 kt






- Airport Elevation : 87 ft
- IATA code : VPS


KVPS - Eglin Air Force Base

CURRENT METAR :
  • 120256Z AUTO 04010KT 10SM OVC080 10/00 A3039 RMK AO2 SLPNO T00970003 50003 $

EXPIRED METARs :
  • 120156Z AUTO 04007KT 10SM OVC075 10/00 A3039 RMK AO2 SLPNO T00960002 $

TAF TAF KVPS
Valid from the 12 at 02:00 until the 13 at 08:00 UTC


120200Z 1202/1308 02012G18KT 9999 VCSH SCT045 BKN080 QNH3032INS
BECMG 1211/1212 04015G25KT 9999 NSW SCT035 BKN065 QNH3030INS
BECMG 1217/1218 08012G20KT 8000 -SHRA BKN020 BKN050 QNH3035INS
BECMG 1302/1303 09012G18KT 8000 -SHRA SCT009 BKN015 BKN060 QNH3024INS TX13/1218Z TN08/1212Z



MET'MAP, your aeronautical weather chart ! - Copyright ORBIFLY December 2007 - Disclaimer

ORBIFLY MET'MAP TEAM :

Programming & Development : Alexandra Zaïnal
Concept & original design : Baudouin d'Aumeries
Assistance for programming : Marc-Olivier Méhu
Technical & hardware support : Manuel Goepfert

Contact : metmap@orbifly.com




SOURCES & CREDITS :

   NOAA       Earth
Advisory